sensor_id;sensor_type;location;lat;lon;timestamp;temperature;humidity
14727;DHT22;7454;51.256;8.176;2023-03-04T00:01:32;1.80;78.20
14727;DHT22;7454;51.256;8.176;2023-03-04T00:03:57;1.80;78.20
14727;DHT22;7454;51.256;8.176;2023-03-04T00:06:23;1.80;78.40
14727;DHT22;7454;51.256;8.176;2023-03-04T00:08:49;1.80;78.10
14727;DHT22;7454;51.256;8.176;2023-03-04T00:11:14;1.90;78.20
14727;DHT22;7454;51.256;8.176;2023-03-04T00:13:40;1.90;78.20
14727;DHT22;7454;51.256;8.176;2023-03-04T00:16:06;1.90;78.20
14727;DHT22;7454;51.256;8.176;2023-03-04T00:18:31;2.00;78.20
14727;DHT22;7454;51.256;8.176;2023-03-04T00:20:57;2.00;78.20
14727;DHT22;7454;51.256;8.176;2023-03-04T00:23:23;2.00;78.20
14727;DHT22;7454;51.256;8.176;2023-03-04T00:25:48;2.00;78.20
14727;DHT22;7454;51.256;8.176;2023-03-04T00:28:14;2.10;78.20
14727;DHT22;7454;51.256;8.176;2023-03-04T00:30:40;2.10;78.20
14727;DHT22;7454;51.256;8.176;2023-03-04T00:33:05;2.10;78.10
14727;DHT22;7454;51.256;8.176;2023-03-04T00:35:31;2.10;78.20
14727;DHT22;7454;51.256;8.176;2023-03-04T00:37:56;2.10;78.10
14727;DHT22;7454;51.256;8.176;2023-03-04T00:40:22;2.10;78.20
14727;DHT22;7454;51.256;8.176;2023-03-04T00:42:48;2.10;78.10
14727;DHT22;7454;51.256;8.176;2023-03-04T00:45:13;2.30;78.20
14727;DHT22;7454;51.256;8.176;2023-03-04T00:47:39;2.10;78.10
14727;DHT22;7454;51.256;8.176;2023-03-04T00:50:05;2.10;78.10
14727;DHT22;7454;51.256;8.176;2023-03-04T00:52:31;2.10;78.00
14727;DHT22;7454;51.256;8.176;2023-03-04T00:54:57;2.10;78.10
14727;DHT22;7454;51.256;8.176;2023-03-04T00:57:23;2.20;78.20
14727;DHT22;7454;51.256;8.176;2023-03-04T00:59:48;2.20;78.10
14727;DHT22;7454;51.256;8.176;2023-03-04T01:02:14;2.10;78.20
14727;DHT22;7454;51.256;8.176;2023-03-04T01:04:39;2.20;78.10
14727;DHT22;7454;51.256;8.176;2023-03-04T01:07:06;2.20;78.00
14727;DHT22;7454;51.256;8.176;2023-03-04T01:09:32;2.10;78.00
14727;DHT22;7454;51.256;8.176;2023-03-04T01:11:58;2.20;78.00
14727;DHT22;7454;51.256;8.176;2023-03-04T01:14:23;2.10;78.00
14727;DHT22;7454;51.256;8.176;2023-03-04T01:16:49;2.20;78.10
14727;DHT22;7454;51.256;8.176;2023-03-04T01:19:15;2.10;78.00
14727;DHT22;7454;51.256;8.176;2023-03-04T01:21:41;2.10;77.90
14727;DHT22;7454;51.256;8.176;2023-03-04T01:24:07;2.20;77.90
14727;DHT22;7454;51.256;8.176;2023-03-04T01:26:33;2.20;77.90
14727;DHT22;7454;51.256;8.176;2023-03-04T01:28:58;2.30;77.90
14727;DHT22;7454;51.256;8.176;2023-03-04T01:31:24;2.30;77.90
14727;DHT22;7454;51.256;8.176;2023-03-04T01:33:50;2.30;77.80
14727;DHT22;7454;51.256;8.176;2023-03-04T01:36:16;2.30;77.60
14727;DHT22;7454;51.256;8.176;2023-03-04T01:38:42;2.30;77.60
14727;DHT22;7454;51.256;8.176;2023-03-04T01:41:08;2.40;77.60
14727;DHT22;7454;51.256;8.176;2023-03-04T01:43:35;2.40;77.70
14727;DHT22;7454;51.256;8.176;2023-03-04T01:46:01;2.40;77.60
14727;DHT22;7454;51.256;8.176;2023-03-04T01:48:28;2.40;77.50
14727;DHT22;7454;51.256;8.176;2023-03-04T01:50:56;2.50;77.50
14727;DHT22;7454;51.256;8.176;2023-03-04T01:53:25;2.50;77.50
14727;DHT22;7454;51.256;8.176;2023-03-04T01:55:53;2.50;77.40
14727;DHT22;7454;51.256;8.176;2023-03-04T01:58:20;2.50;77.30
14727;DHT22;7454;51.256;8.176;2023-03-04T02:00:52;2.50;77.30
14727;DHT22;7454;51.256;8.176;2023-03-04T02:03:19;2.50;77.50
14727;DHT22;7454;51.256;8.176;2023-03-04T02:05:47;2.50;77.40
14727;DHT22;7454;51.256;8.176;2023-03-04T02:08:14;2.50;77.50
14727;DHT22;7454;51.256;8.176;2023-03-04T02:10:41;2.50;77.30
14727;DHT22;7454;51.256;8.176;2023-03-04T02:13:07;2.60;77.30
14727;DHT22;7454;51.256;8.176;2023-03-04T02:15:33;2.50;77.40
14727;DHT22;7454;51.256;8.176;2023-03-04T02:17:59;2.60;77.50
14727;DHT22;7454;51.256;8.176;2023-03-04T02:25:32;2.60;77.40
14727;DHT22;7454;51.256;8.176;2023-03-04T02:28:02;2.60;77.40
14727;DHT22;7454;51.256;8.176;2023-03-04T02:30:27;2.60;77.40
14727;DHT22;7454;51.256;8.176;2023-03-04T02:32:53;2.60;77.50
14727;DHT22;7454;51.256;8.176;2023-03-04T02:35:19;2.60;77.50
14727;DHT22;7454;51.256;8.176;2023-03-04T02:37:45;2.60;77.40
14727;DHT22;7454;51.256;8.176;2023-03-04T02:40:22;2.60;77.40
14727;DHT22;7454;51.256;8.176;2023-03-04T02:42:51;2.60;77.30
14727;DHT22;7454;51.256;8.176;2023-03-04T02:48:01;2.60;77.30
14727;DHT22;7454;51.256;8.176;2023-03-04T02:50:27;2.60;77.40
14727;DHT22;7454;51.256;8.176;2023-03-04T02:52:55;2.60;77.30
14727;DHT22;7454;51.256;8.176;2023-03-04T02:55:21;2.70;77.30
14727;DHT22;7454;51.256;8.176;2023-03-04T02:57:46;2.70;77.30
14727;DHT22;7454;51.256;8.176;2023-03-04T03:00:13;2.60;77.30
14727;DHT22;7454;51.256;8.176;2023-03-04T03:02:40;2.60;77.30
14727;DHT22;7454;51.256;8.176;2023-03-04T03:05:06;2.60;77.30
14727;DHT22;7454;51.256;8.176;2023-03-04T03:07:32;2.70;77.30
14727;DHT22;7454;51.256;8.176;2023-03-04T03:10:00;2.70;77.30
14727;DHT22;7454;51.256;8.176;2023-03-04T03:12:25;2.70;77.20
14727;DHT22;7454;51.256;8.176;2023-03-04T03:14:51;2.70;77.30
14727;DHT22;7454;51.256;8.176;2023-03-04T03:17:19;2.70;77.20
14727;DHT22;7454;51.256;8.176;2023-03-04T03:19:45;2.70;77.30
14727;DHT22;7454;51.256;8.176;2023-03-04T03:22:12;2.70;77.20
14727;DHT22;7454;51.256;8.176;2023-03-04T03:24:38;2.70;77.20
14727;DHT22;7454;51.256;8.176;2023-03-04T03:27:04;2.70;77.30
14727;DHT22;7454;51.256;8.176;2023-03-04T03:29:30;2.70;77.30
14727;DHT22;7454;51.256;8.176;2023-03-04T03:31:55;2.70;77.30
14727;DHT22;7454;51.256;8.176;2023-03-04T03:34:21;2.70;77.40
14727;DHT22;7454;51.256;8.176;2023-03-04T03:36:48;2.70;77.30
14727;DHT22;7454;51.256;8.176;2023-03-04T03:39:14;2.70;77.40
14727;DHT22;7454;51.256;8.176;2023-03-04T03:41:42;2.70;77.40
14727;DHT22;7454;51.256;8.176;2023-03-04T03:44:08;2.70;77.40
14727;DHT22;7454;51.256;8.176;2023-03-04T03:46:33;2.70;77.30
14727;DHT22;7454;51.256;8.176;2023-03-04T03:48:59;2.70;77.30
14727;DHT22;7454;51.256;8.176;2023-03-04T03:51:25;2.70;77.30
14727;DHT22;7454;51.256;8.176;2023-03-04T03:53:51;2.70;77.30
14727;DHT22;7454;51.256;8.176;2023-03-04T03:56:17;2.80;77.40
14727;DHT22;7454;51.256;8.176;2023-03-04T03:58:42;2.70;77.40
14727;DHT22;7454;51.256;8.176;2023-03-04T04:01:08;2.70;77.40
14727;DHT22;7454;51.256;8.176;2023-03-04T04:03:34;2.70;77.40
14727;DHT22;7454;51.256;8.176;2023-03-04T04:05:59;2.80;77.40
14727;DHT22;7454;51.256;8.176;2023-03-04T04:08:25;2.70;77.40
14727;DHT22;7454;51.256;8.176;2023-03-04T04:10:51;2.80;77.40
14727;DHT22;7454;51.256;8.176;2023-03-04T04:13:17;2.70;77.50
14727;DHT22;7454;51.256;8.176;2023-03-04T04:15:42;2.70;77.40
14727;DHT22;7454;51.256;8.176;2023-03-04T04:18:08;2.80;77.50
14727;DHT22;7454;51.256;8.176;2023-03-04T04:20:34;2.70;77.50
14727;DHT22;7454;51.256;8.176;2023-03-04T04:23:00;2.80;77.50
14727;DHT22;7454;51.256;8.176;2023-03-04T04:25:26;2.70;77.40
14727;DHT22;7454;51.256;8.176;2023-03-04T04:27:52;2.70;77.40
14727;DHT22;7454;51.256;8.176;2023-03-04T04:30:17;2.70;77.40
14727;DHT22;7454;51.256;8.176;2023-03-04T04:32:43;2.70;77.40
14727;DHT22;7454;51.256;8.176;2023-03-04T04:35:09;2.70;77.40
14727;DHT22;7454;51.256;8.176;2023-03-04T04:37:34;2.70;77.40
14727;DHT22;7454;51.256;8.176;2023-03-04T04:40:00;2.80;77.40
14727;DHT22;7454;51.256;8.176;2023-03-04T04:42:26;2.70;77.50
14727;DHT22;7454;51.256;8.176;2023-03-04T04:44:51;2.80;77.40
14727;DHT22;7454;51.256;8.176;2023-03-04T04:47:17;2.80;77.40
14727;DHT22;7454;51.256;8.176;2023-03-04T04:49:43;2.80;77.50
14727;DHT22;7454;51.256;8.176;2023-03-04T04:52:08;2.80;77.40
14727;DHT22;7454;51.256;8.176;2023-03-04T04:54:34;2.90;77.50
14727;DHT22;7454;51.256;8.176;2023-03-04T04:57:00;2.80;77.40
14727;DHT22;7454;51.256;8.176;2023-03-04T04:59:25;2.80;77.40
14727;DHT22;7454;51.256;8.176;2023-03-04T05:01:51;2.80;77.40
14727;DHT22;7454;51.256;8.176;2023-03-04T05:04:17;2.80;77.40
14727;DHT22;7454;51.256;8.176;2023-03-04T05:06:42;2.80;77.50
14727;DHT22;7454;51.256;8.176;2023-03-04T05:09:08;2.80;77.50
14727;DHT22;7454;51.256;8.176;2023-03-04T05:11:34;2.80;77.40
14727;DHT22;7454;51.256;8.176;2023-03-04T05:13:59;2.80;77.50
14727;DHT22;7454;51.256;8.176;2023-03-04T05:16:25;2.80;77.50
14727;DHT22;7454;51.256;8.176;2023-03-04T05:18:50;2.80;77.50
14727;DHT22;7454;51.256;8.176;2023-03-04T05:21:16;2.80;77.50
14727;DHT22;7454;51.256;8.176;2023-03-04T05:23:42;2.80;77.50
14727;DHT22;7454;51.256;8.176;2023-03-04T05:26:09;2.80;77.50
14727;DHT22;7454;51.256;8.176;2023-03-04T05:28:36;2.80;77.40
14727;DHT22;7454;51.256;8.176;2023-03-04T05:31:02;2.80;77.50
14727;DHT22;7454;51.256;8.176;2023-03-04T05:33:28;2.80;77.50
14727;DHT22;7454;51.256;8.176;2023-03-04T05:35:54;2.80;77.50
14727;DHT22;7454;51.256;8.176;2023-03-04T05:38:20;2.80;77.50
14727;DHT22;7454;51.256;8.176;2023-03-04T05:40:46;2.90;77.50
14727;DHT22;7454;51.256;8.176;2023-03-04T05:43:12;2.90;77.50
14727;DHT22;7454;51.256;8.176;2023-03-04T05:45:39;2.80;77.50
14727;DHT22;7454;51.256;8.176;2023-03-04T05:48:05;2.80;77.50
14727;DHT22;7454;51.256;8.176;2023-03-04T05:50:31;2.80;77.50
14727;DHT22;7454;51.256;8.176;2023-03-04T05:52:57;2.80;77.50
14727;DHT22;7454;51.256;8.176;2023-03-04T05:55:22;2.80;77.50
14727;DHT22;7454;51.256;8.176;2023-03-04T05:57:48;2.80;77.50
14727;DHT22;7454;51.256;8.176;2023-03-04T06:00:14;2.80;77.50
14727;DHT22;7454;51.256;8.176;2023-03-04T06:02:41;2.80;77.40
14727;DHT22;7454;51.256;8.176;2023-03-04T06:05:08;2.80;77.50
14727;DHT22;7454;51.256;8.176;2023-03-04T06:07:37;2.80;77.50
14727;DHT22;7454;51.256;8.176;2023-03-04T06:10:03;2.90;77.60
14727;DHT22;7454;51.256;8.176;2023-03-04T06:12:29;2.80;77.50
14727;DHT22;7454;51.256;8.176;2023-03-04T06:14:55;2.80;77.60
14727;DHT22;7454;51.256;8.176;2023-03-04T06:17:21;2.90;77.70
14727;DHT22;7454;51.256;8.176;2023-03-04T06:19:46;2.80;77.60
14727;DHT22;7454;51.256;8.176;2023-03-04T06:22:12;2.80;77.50
14727;DHT22;7454;51.256;8.176;2023-03-04T06:24:38;2.90;77.60
14727;DHT22;7454;51.256;8.176;2023-03-04T06:27:03;2.80;77.60
14727;DHT22;7454;51.256;8.176;2023-03-04T06:29:29;2.80;77.60
14727;DHT22;7454;51.256;8.176;2023-03-04T06:31:55;2.80;77.70
14727;DHT22;7454;51.256;8.176;2023-03-04T06:34:20;2.80;77.70
14727;DHT22;7454;51.256;8.176;2023-03-04T06:36:46;2.80;77.50
14727;DHT22;7454;51.256;8.176;2023-03-04T06:39:12;2.90;77.40
14727;DHT22;7454;51.256;8.176;2023-03-04T06:41:38;2.90;77.50
14727;DHT22;7454;51.256;8.176;2023-03-04T06:44:04;2.80;77.40
14727;DHT22;7454;51.256;8.176;2023-03-04T06:46:31;2.90;77.60
14727;DHT22;7454;51.256;8.176;2023-03-04T06:48:57;2.90;77.70
14727;DHT22;7454;51.256;8.176;2023-03-04T06:51:23;3.00;77.80
14727;DHT22;7454;51.256;8.176;2023-03-04T06:53:49;2.90;77.90
14727;DHT22;7454;51.256;8.176;2023-03-04T06:56:14;2.90;77.80
14727;DHT22;7454;51.256;8.176;2023-03-04T06:58:41;2.90;77.80
14727;DHT22;7454;51.256;8.176;2023-03-04T07:01:09;2.90;77.80
14727;DHT22;7454;51.256;8.176;2023-03-04T07:03:44;2.90;77.80
14727;DHT22;7454;51.256;8.176;2023-03-04T07:06:10;2.90;77.80
14727;DHT22;7454;51.256;8.176;2023-03-04T07:08:38;2.90;78.00
14727;DHT22;7454;51.256;8.176;2023-03-04T07:11:04;2.90;78.00
14727;DHT22;7454;51.256;8.176;2023-03-04T07:13:30;2.90;78.00
14727;DHT22;7454;51.256;8.176;2023-03-04T07:15:56;2.90;77.90
14727;DHT22;7454;51.256;8.176;2023-03-04T07:18:21;2.90;78.00
14727;DHT22;7454;51.256;8.176;2023-03-04T07:20:50;2.90;78.00
14727;DHT22;7454;51.256;8.176;2023-03-04T07:23:16;2.90;78.10
14727;DHT22;7454;51.256;8.176;2023-03-04T07:25:42;3.00;78.30
14727;DHT22;7454;51.256;8.176;2023-03-04T07:28:07;3.00;78.20
14727;DHT22;7454;51.256;8.176;2023-03-04T07:30:33;3.00;78.20
14727;DHT22;7454;51.256;8.176;2023-03-04T07:32:59;3.10;78.10
14727;DHT22;7454;51.256;8.176;2023-03-04T07:35:24;3.10;78.00
14727;DHT22;7454;51.256;8.176;2023-03-04T07:37:50;3.10;78.00
14727;DHT22;7454;51.256;8.176;2023-03-04T07:40:16;3.20;78.10
14727;DHT22;7454;51.256;8.176;2023-03-04T07:42:42;3.20;78.10
14727;DHT22;7454;51.256;8.176;2023-03-04T07:45:13;3.10;78.10
14727;DHT22;7454;51.256;8.176;2023-03-04T07:47:39;3.10;78.10
14727;DHT22;7454;51.256;8.176;2023-03-04T07:50:05;3.20;78.10
14727;DHT22;7454;51.256;8.176;2023-03-04T07:52:31;3.20;78.30
14727;DHT22;7454;51.256;8.176;2023-03-04T07:54:57;3.20;78.20
14727;DHT22;7454;51.256;8.176;2023-03-04T07:57:23;3.20;78.20
14727;DHT22;7454;51.256;8.176;2023-03-04T07:59:48;3.20;78.10
14727;DHT22;7454;51.256;8.176;2023-03-04T08:02:14;3.20;78.10
14727;DHT22;7454;51.256;8.176;2023-03-04T08:04:40;3.20;78.20
14727;DHT22;7454;51.256;8.176;2023-03-04T08:07:06;3.20;78.20
14727;DHT22;7454;51.256;8.176;2023-03-04T08:09:31;3.20;78.30
14727;DHT22;7454;51.256;8.176;2023-03-04T08:11:57;3.30;78.40
14727;DHT22;7454;51.256;8.176;2023-03-04T08:14:22;3.30;78.40
14727;DHT22;7454;51.256;8.176;2023-03-04T08:16:48;3.30;78.60
14727;DHT22;7454;51.256;8.176;2023-03-04T08:19:13;3.40;78.80
14727;DHT22;7454;51.256;8.176;2023-03-04T08:21:39;3.30;78.80
14727;DHT22;7454;51.256;8.176;2023-03-04T08:24:05;3.40;78.80
14727;DHT22;7454;51.256;8.176;2023-03-04T08:26:33;3.40;78.80
14727;DHT22;7454;51.256;8.176;2023-03-04T08:29:03;3.50;79.00
14727;DHT22;7454;51.256;8.176;2023-03-04T08:31:29;3.50;79.00
14727;DHT22;7454;51.256;8.176;2023-03-04T08:33:58;3.50;78.70
14727;DHT22;7454;51.256;8.176;2023-03-04T08:36:24;3.50;78.90
14727;DHT22;7454;51.256;8.176;2023-03-04T08:38:50;3.60;79.00
14727;DHT22;7454;51.256;8.176;2023-03-04T08:41:15;3.60;78.70
14727;DHT22;7454;51.256;8.176;2023-03-04T08:43:41;3.70;78.90
14727;DHT22;7454;51.256;8.176;2023-03-04T08:46:07;3.70;79.00
14727;DHT22;7454;51.256;8.176;2023-03-04T08:48:33;3.70;78.70
14727;DHT22;7454;51.256;8.176;2023-03-04T08:50:59;3.70;78.70
14727;DHT22;7454;51.256;8.176;2023-03-04T08:53:25;3.70;78.70
14727;DHT22;7454;51.256;8.176;2023-03-04T08:55:51;3.80;78.60
14727;DHT22;7454;51.256;8.176;2023-03-04T08:58:17;3.80;78.50
14727;DHT22;7454;51.256;8.176;2023-03-04T09:00:47;3.80;78.70
14727;DHT22;7454;51.256;8.176;2023-03-04T09:03:14;3.90;78.90
14727;DHT22;7454;51.256;8.176;2023-03-04T09:05:40;3.90;78.60
14727;DHT22;7454;51.256;8.176;2023-03-04T09:08:06;3.90;78.90
14727;DHT22;7454;51.256;8.176;2023-03-04T09:10:32;4.00;79.10
14727;DHT22;7454;51.256;8.176;2023-03-04T09:12:58;4.00;79.00
14727;DHT22;7454;51.256;8.176;2023-03-04T09:15:25;4.00;78.80
14727;DHT22;7454;51.256;8.176;2023-03-04T09:17:51;4.10;79.00
14727;DHT22;7454;51.256;8.176;2023-03-04T09:20:16;4.10;78.60
14727;DHT22;7454;51.256;8.176;2023-03-04T09:22:42;4.10;78.60
14727;DHT22;7454;51.256;8.176;2023-03-04T09:25:08;4.20;78.80
14727;DHT22;7454;51.256;8.176;2023-03-04T09:27:35;4.30;78.70
14727;DHT22;7454;51.256;8.176;2023-03-04T09:30:01;4.30;78.80
14727;DHT22;7454;51.256;8.176;2023-03-04T09:32:26;4.40;78.80
14727;DHT22;7454;51.256;8.176;2023-03-04T09:34:52;4.40;78.50
14727;DHT22;7454;51.256;8.176;2023-03-04T09:37:18;4.50;78.50
14727;DHT22;7454;51.256;8.176;2023-03-04T09:39:44;4.60;78.70
14727;DHT22;7454;51.256;8.176;2023-03-04T09:42:12;4.50;78.50
14727;DHT22;7454;51.256;8.176;2023-03-04T09:44:47;4.50;78.40
14727;DHT22;7454;51.256;8.176;2023-03-04T09:47:13;4.50;78.50
14727;DHT22;7454;51.256;8.176;2023-03-04T09:49:41;4.50;78.60
14727;DHT22;7454;51.256;8.176;2023-03-04T09:57:56;4.70;78.60
14727;DHT22;7454;51.256;8.176;2023-03-04T10:00:38;4.70;78.70
14727;DHT22;7454;51.256;8.176;2023-03-04T10:05:37;4.80;78.70
14727;DHT22;7454;51.256;8.176;2023-03-04T10:10:40;4.80;78.80
14727;DHT22;7454;51.256;8.176;2023-03-04T10:13:17;4.80;78.80
14727;DHT22;7454;51.256;8.176;2023-03-04T10:15:47;4.80;78.80
14727;DHT22;7454;51.256;8.176;2023-03-04T10:18:17;4.70;78.90
14727;DHT22;7454;51.256;8.176;2023-03-04T10:20:55;4.70;78.90
14727;DHT22;7454;51.256;8.176;2023-03-04T10:23:26;4.80;79.00
14727;DHT22;7454;51.256;8.176;2023-03-04T10:25:52;4.80;79.10
14727;DHT22;7454;51.256;8.176;2023-03-04T10:28:25;4.80;79.30
14727;DHT22;7454;51.256;8.176;2023-03-04T10:30:57;4.80;79.10
14727;DHT22;7454;51.256;8.176;2023-03-04T10:33:30;4.80;79.10
14727;DHT22;7454;51.256;8.176;2023-03-04T10:38:35;4.70;78.90
14727;DHT22;7454;51.256;8.176;2023-03-04T10:41:10;4.80;79.20
14727;DHT22;7454;51.256;8.176;2023-03-04T10:43:38;4.70;79.40
14727;DHT22;7454;51.256;8.176;2023-03-04T10:46:03;4.70;79.40
14727;DHT22;7454;51.256;8.176;2023-03-04T10:48:30;4.60;79.30
14727;DHT22;7454;51.256;8.176;2023-03-04T10:51:09;4.60;79.40
14727;DHT22;7454;51.256;8.176;2023-03-04T10:53:38;4.60;79.30
14727;DHT22;7454;51.256;8.176;2023-03-04T11:01:59;4.70;79.40
14727;DHT22;7454;51.256;8.176;2023-03-04T11:04:27;4.60;79.40
14727;DHT22;7454;51.256;8.176;2023-03-04T11:06:58;4.70;79.50
14727;DHT22;7454;51.256;8.176;2023-03-04T11:09:25;4.70;79.30
14727;DHT22;7454;51.256;8.176;2023-03-04T11:11:53;4.70;79.60
14727;DHT22;7454;51.256;8.176;2023-03-04T11:16:58;4.70;79.50
14727;DHT22;7454;51.256;8.176;2023-03-04T11:19:37;4.70;79.20
14727;DHT22;7454;51.256;8.176;2023-03-04T11:22:04;4.60;79.40
14727;DHT22;7454;51.256;8.176;2023-03-04T11:24:30;4.70;79.20
14727;DHT22;7454;51.256;8.176;2023-03-04T11:29:36;4.80;79.70
14727;DHT22;7454;51.256;8.176;2023-03-04T11:32:04;4.90;79.60
14727;DHT22;7454;51.256;8.176;2023-03-04T11:40:09;4.90;79.40
14727;DHT22;7454;51.256;8.176;2023-03-04T11:45:21;5.00;80.00
14727;DHT22;7454;51.256;8.176;2023-03-04T11:50:50;5.00;79.80
14727;DHT22;7454;51.256;8.176;2023-03-04T11:56:19;5.10;79.80
14727;DHT22;7454;51.256;8.176;2023-03-04T12:10:25;5.00;79.40
14727;DHT22;7454;51.256;8.176;2023-03-04T12:18:56;5.00;79.20
14727;DHT22;7454;51.256;8.176;2023-03-04T12:21:35;5.00;79.30
14727;DHT22;7454;51.256;8.176;2023-03-04T12:24:44;5.00;79.60
14727;DHT22;7454;51.256;8.176;2023-03-04T12:29:56;4.90;79.60
14727;DHT22;7454;51.256;8.176;2023-03-04T12:38:10;5.00;79.50
14727;DHT22;7454;51.256;8.176;2023-03-04T12:43:58;5.10;79.50
14727;DHT22;7454;51.256;8.176;2023-03-04T12:54:48;5.30;79.50
14727;DHT22;7454;51.256;8.176;2023-03-04T12:57:16;5.30;79.30
14727;DHT22;7454;51.256;8.176;2023-03-04T12:59:49;5.40;79.10
14727;DHT22;7454;51.256;8.176;2023-03-04T13:02:26;5.30;79.10
14727;DHT22;7454;51.256;8.176;2023-03-04T13:07:51;5.30;79.10
14727;DHT22;7454;51.256;8.176;2023-03-04T13:10:20;5.30;79.20
14727;DHT22;7454;51.256;8.176;2023-03-04T13:12:57;5.20;79.20
14727;DHT22;7454;51.256;8.176;2023-03-04T13:25:48;5.20;79.80
14727;DHT22;7454;51.256;8.176;2023-03-04T13:41:11;5.10;79.70
14727;DHT22;7454;51.256;8.176;2023-03-04T13:47:12;5.10;79.50
14727;DHT22;7454;51.256;8.176;2023-03-04T13:49:40;5.20;79.80
14727;DHT22;7454;51.256;8.176;2023-03-04T13:55:40;5.10;79.60
14727;DHT22;7454;51.256;8.176;2023-03-04T13:58:13;5.10;79.70
14727;DHT22;7454;51.256;8.176;2023-03-04T14:00:50;5.10;79.70
14727;DHT22;7454;51.256;8.176;2023-03-04T14:03:21;5.10;79.90
14727;DHT22;7454;51.256;8.176;2023-03-04T14:08:35;5.10;80.00
14727;DHT22;7454;51.256;8.176;2023-03-04T14:11:01;5.10;80.00
14727;DHT22;7454;51.256;8.176;2023-03-04T14:13:27;5.00;80.00
14727;DHT22;7454;51.256;8.176;2023-03-04T14:15:53;5.00;80.00
14727;DHT22;7454;51.256;8.176;2023-03-04T14:18:21;5.00;80.20
14727;DHT22;7454;51.256;8.176;2023-03-04T14:20:49;5.00;80.30
14727;DHT22;7454;51.256;8.176;2023-03-04T14:23:29;5.00;80.30
14727;DHT22;7454;51.256;8.176;2023-03-04T14:26:06;5.00;80.30
14727;DHT22;7454;51.256;8.176;2023-03-04T14:28:41;5.00;80.60
14727;DHT22;7454;51.256;8.176;2023-03-04T14:31:20;5.00;80.60
14727;DHT22;7454;51.256;8.176;2023-03-04T14:33:48;4.90;80.60
14727;DHT22;7454;51.256;8.176;2023-03-04T14:36:16;4.90;80.30
14727;DHT22;7454;51.256;8.176;2023-03-04T14:38:43;4.90;80.70
14727;DHT22;7454;51.256;8.176;2023-03-04T14:41:38;4.90;80.60
14727;DHT22;7454;51.256;8.176;2023-03-04T14:47:00;4.90;80.60
14727;DHT22;7454;51.256;8.176;2023-03-04T14:49:31;4.90;80.70
14727;DHT22;7454;51.256;8.176;2023-03-04T14:51:58;4.90;80.50
14727;DHT22;7454;51.256;8.176;2023-03-04T14:54:28;4.90;80.60
14727;DHT22;7454;51.256;8.176;2023-03-04T14:56:54;4.90;80.20
14727;DHT22;7454;51.256;8.176;2023-03-04T14:59:31;4.90;80.30
14727;DHT22;7454;51.256;8.176;2023-03-04T15:02:17;4.90;80.40
14727;DHT22;7454;51.256;8.176;2023-03-04T15:04:45;4.90;79.70
14727;DHT22;7454;51.256;8.176;2023-03-04T15:07:13;5.00;80.20
14727;DHT22;7454;51.256;8.176;2023-03-04T15:09:40;5.00;79.90
14727;DHT22;7454;51.256;8.176;2023-03-04T15:12:07;5.00;79.80
14727;DHT22;7454;51.256;8.176;2023-03-04T15:17:19;5.10;79.90
14727;DHT22;7454;51.256;8.176;2023-03-04T15:19:45;5.10;79.80
14727;DHT22;7454;51.256;8.176;2023-03-04T15:22:22;5.10;79.80
14727;DHT22;7454;51.256;8.176;2023-03-04T15:24:47;5.10;79.70
14727;DHT22;7454;51.256;8.176;2023-03-04T15:27:13;5.00;79.60
14727;DHT22;7454;51.256;8.176;2023-03-04T15:29:41;5.00;79.40
14727;DHT22;7454;51.256;8.176;2023-03-04T15:32:08;5.00;79.60
14727;DHT22;7454;51.256;8.176;2023-03-04T15:34:34;5.00;79.40
14727;DHT22;7454;51.256;8.176;2023-03-04T15:36:59;5.00;79.40
14727;DHT22;7454;51.256;8.176;2023-03-04T15:39:25;5.00;79.10
14727;DHT22;7454;51.256;8.176;2023-03-04T15:41:51;5.10;79.00
14727;DHT22;7454;51.256;8.176;2023-03-04T15:44:17;5.10;78.80
14727;DHT22;7454;51.256;8.176;2023-03-04T15:46:43;5.10;79.00
14727;DHT22;7454;51.256;8.176;2023-03-04T15:49:08;5.10;78.60
14727;DHT22;7454;51.256;8.176;2023-03-04T15:51:34;5.10;78.70
14727;DHT22;7454;51.256;8.176;2023-03-04T15:54:00;5.10;78.90
14727;DHT22;7454;51.256;8.176;2023-03-04T15:56:32;5.10;79.00
14727;DHT22;7454;51.256;8.176;2023-03-04T15:59:16;5.10;78.70
14727;DHT22;7454;51.256;8.176;2023-03-04T16:01:42;5.10;78.70
14727;DHT22;7454;51.256;8.176;2023-03-04T16:04:12;5.10;78.80
14727;DHT22;7454;51.256;8.176;2023-03-04T16:06:39;5.10;78.60
14727;DHT22;7454;51.256;8.176;2023-03-04T16:09:05;5.10;78.40
14727;DHT22;7454;51.256;8.176;2023-03-04T16:11:36;5.00;78.30
14727;DHT22;7454;51.256;8.176;2023-03-04T16:14:04;5.00;78.40
14727;DHT22;7454;51.256;8.176;2023-03-04T16:16:29;5.00;78.20
14727;DHT22;7454;51.256;8.176;2023-03-04T16:18:55;5.00;78.40
14727;DHT22;7454;51.256;8.176;2023-03-04T16:21:20;5.00;78.40
14727;DHT22;7454;51.256;8.176;2023-03-04T16:23:48;5.00;78.50
14727;DHT22;7454;51.256;8.176;2023-03-04T16:26:15;5.00;78.50
14727;DHT22;7454;51.256;8.176;2023-03-04T16:28:42;4.90;78.60
14727;DHT22;7454;51.256;8.176;2023-03-04T16:31:09;4.90;78.40
14727;DHT22;7454;51.256;8.176;2023-03-04T16:33:35;4.90;78.50
14727;DHT22;7454;51.256;8.176;2023-03-04T16:36:01;4.90;78.60
14727;DHT22;7454;51.256;8.176;2023-03-04T16:38:29;4.90;78.50
14727;DHT22;7454;51.256;8.176;2023-03-04T16:40:56;4.90;78.60
14727;DHT22;7454;51.256;8.176;2023-03-04T16:43:23;4.80;78.40
14727;DHT22;7454;51.256;8.176;2023-03-04T16:45:49;4.80;78.40
14727;DHT22;7454;51.256;8.176;2023-03-04T16:48:15;4.80;78.50
14727;DHT22;7454;51.256;8.176;2023-03-04T16:50:41;4.80;78.50
14727;DHT22;7454;51.256;8.176;2023-03-04T16:53:26;4.80;78.40
14727;DHT22;7454;51.256;8.176;2023-03-04T16:56:06;4.80;78.50
14727;DHT22;7454;51.256;8.176;2023-03-04T16:58:36;4.80;78.50
14727;DHT22;7454;51.256;8.176;2023-03-04T17:01:02;4.70;78.50
14727;DHT22;7454;51.256;8.176;2023-03-04T17:03:28;4.70;78.50
14727;DHT22;7454;51.256;8.176;2023-03-04T17:05:54;4.70;78.60
14727;DHT22;7454;51.256;8.176;2023-03-04T17:08:20;4.60;78.50
14727;DHT22;7454;51.256;8.176;2023-03-04T17:10:45;4.70;78.60
14727;DHT22;7454;51.256;8.176;2023-03-04T17:13:11;4.60;78.30
14727;DHT22;7454;51.256;8.176;2023-03-04T17:15:37;4.60;78.40
14727;DHT22;7454;51.256;8.176;2023-03-04T17:18:02;4.60;78.60
14727;DHT22;7454;51.256;8.176;2023-03-04T17:20:28;4.60;78.60
14727;DHT22;7454;51.256;8.176;2023-03-04T17:22:54;4.60;78.60
14727;DHT22;7454;51.256;8.176;2023-03-04T17:25:19;4.60;78.50
14727;DHT22;7454;51.256;8.176;2023-03-04T17:27:45;4.60;78.60
14727;DHT22;7454;51.256;8.176;2023-03-04T17:30:11;4.60;78.60
14727;DHT22;7454;51.256;8.176;2023-03-04T17:32:38;4.60;78.50
14727;DHT22;7454;51.256;8.176;2023-03-04T17:35:05;4.60;78.40
14727;DHT22;7454;51.256;8.176;2023-03-04T17:37:32;4.60;78.20
14727;DHT22;7454;51.256;8.176;2023-03-04T17:40:00;4.60;78.30
14727;DHT22;7454;51.256;8.176;2023-03-04T17:42:27;4.50;78.20
14727;DHT22;7454;51.256;8.176;2023-03-04T17:44:52;4.50;78.20
14727;DHT22;7454;51.256;8.176;2023-03-04T17:47:18;4.50;78.20
14727;DHT22;7454;51.256;8.176;2023-03-04T17:49:44;4.50;78.10
14727;DHT22;7454;51.256;8.176;2023-03-04T17:52:09;4.50;78.20
14727;DHT22;7454;51.256;8.176;2023-03-04T17:54:35;4.50;78.20
14727;DHT22;7454;51.256;8.176;2023-03-04T17:57:02;4.60;78.20
14727;DHT22;7454;51.256;8.176;2023-03-04T17:59:28;4.50;78.20
14727;DHT22;7454;51.256;8.176;2023-03-04T18:01:53;4.50;78.10
14727;DHT22;7454;51.256;8.176;2023-03-04T18:04:19;4.50;78.10
14727;DHT22;7454;51.256;8.176;2023-03-04T18:06:45;4.50;78.10
14727;DHT22;7454;51.256;8.176;2023-03-04T18:09:11;4.50;78.10